sensor_id;sensor_type;location;lat;lon;timestamp;P1;durP1;ratioP1;P2;durP2;ratioP2
63046;SDS011;62025;39.238;9.126;2023-02-01T00:00:20;23.63;;;11.70;;
63046;SDS011;62025;39.238;9.126;2023-02-01T00:02:46;22.60;;;14.13;;
63046;SDS011;62025;39.238;9.126;2023-02-01T00:05:12;21.95;;;14.43;;
63046;SDS011;62025;39.238;9.126;2023-02-01T00:07:39;23.95;;;11.63;;
63046;SDS011;62025;39.238;9.126;2023-02-01T00:10:05;18.67;;;10.02;;
63046;SDS011;62025;39.238;9.126;2023-02-01T00:12:32;21.17;;;11.23;;
63046;SDS011;62025;39.238;9.126;2023-02-01T00:14:58;19.63;;;10.52;;
63046;SDS011;62025;39.238;9.126;2023-02-01T00:17:25;21.17;;;11.20;;
63046;SDS011;62025;39.238;9.126;2023-02-01T00:19:51;20.80;;;12.00;;
63046;SDS011;62025;39.238;9.126;2023-02-01T00:22:17;20.70;;;12.18;;
63046;SDS011;62025;39.238;9.126;2023-02-01T00:24:43;19.88;;;11.73;;
63046;SDS011;62025;39.238;9.126;2023-02-01T00:27:16;21.80;;;12.57;;
63046;SDS011;62025;39.238;9.126;2023-02-01T00:29:45;20.95;;;12.48;;
63046;SDS011;62025;39.238;9.126;2023-02-01T00:32:11;26.08;;;12.77;;
63046;SDS011;62025;39.238;9.126;2023-02-01T00:34:38;27.02;;;13.32;;
63046;SDS011;62025;39.238;9.126;2023-02-01T00:37:04;25.20;;;13.32;;
63046;SDS011;62025;39.238;9.126;2023-02-01T00:39:30;23.88;;;13.20;;
63046;SDS011;62025;39.238;9.126;2023-02-01T00:41:56;24.05;;;12.65;;
63046;SDS011;62025;39.238;9.126;2023-02-01T00:44:22;26.60;;;12.95;;
63046;SDS011;62025;39.238;9.126;2023-02-01T00:46:48;21.05;;;13.52;;
63046;SDS011;62025;39.238;9.126;2023-02-01T00:49:14;23.17;;;14.02;;
63046;SDS011;62025;39.238;9.126;2023-02-01T00:51:40;24.55;;;14.48;;
63046;SDS011;62025;39.238;9.126;2023-02-01T00:54:06;22.67;;;14.07;;
63046;SDS011;62025;39.238;9.126;2023-02-01T00:56:32;24.90;;;14.30;;
63046;SDS011;62025;39.238;9.126;2023-02-01T00:58:58;27.88;;;14.77;;
63046;SDS011;62025;39.238;9.126;2023-02-01T01:01:25;25.77;;;14.77;;
63046;SDS011;62025;39.238;9.126;2023-02-01T01:03:57;21.75;;;14.95;;
63046;SDS011;62025;39.238;9.126;2023-02-01T01:06:26;22.95;;;13.93;;
63046;SDS011;62025;39.238;9.126;2023-02-01T01:08:56;27.98;;;13.77;;
63046;SDS011;62025;39.238;9.126;2023-02-01T01:11:25;22.08;;;13.20;;
63046;SDS011;62025;39.238;9.126;2023-02-01T01:13:58;22.38;;;13.38;;
63046;SDS011;62025;39.238;9.126;2023-02-01T01:16:26;23.77;;;12.60;;
63046;SDS011;62025;39.238;9.126;2023-02-01T01:18:55;17.33;;;11.77;;
63046;SDS011;62025;39.238;9.126;2023-02-01T01:21:23;19.85;;;11.70;;
63046;SDS011;62025;39.238;9.126;2023-02-01T01:23:50;18.63;;;11.18;;
63046;SDS011;62025;39.238;9.126;2023-02-01T01:26:17;19.38;;;10.65;;
63046;SDS011;62025;39.238;9.126;2023-02-01T01:28:49;17.17;;;10.07;;
63046;SDS011;62025;39.238;9.126;2023-02-01T01:31:17;20.02;;;10.07;;
63046;SDS011;62025;39.238;9.126;2023-02-01T01:36:16;13.82;;;8.25;;
63046;SDS011;62025;39.238;9.126;2023-02-01T01:38:43;15.80;;;9.18;;
63046;SDS011;62025;39.238;9.126;2023-02-01T01:41:12;14.23;;;8.70;;
63046;SDS011;62025;39.238;9.126;2023-02-01T01:43:46;14.07;;;8.00;;
63046;SDS011;62025;39.238;9.126;2023-02-01T01:46:17;15.13;;;8.25;;
63046;SDS011;62025;39.238;9.126;2023-02-01T01:49:14;13.07;;;7.80;;
63046;SDS011;62025;39.238;9.126;2023-02-01T01:51:44;15.35;;;7.88;;
63046;SDS011;62025;39.238;9.126;2023-02-01T01:54:33;16.30;;;8.57;;
63046;SDS011;62025;39.238;9.126;2023-02-01T01:57:06;14.63;;;8.75;;
63046;SDS011;62025;39.238;9.126;2023-02-01T01:59:43;14.93;;;9.23;;
63046;SDS011;62025;39.238;9.126;2023-02-01T02:02:16;15.38;;;9.60;;
63046;SDS011;62025;39.238;9.126;2023-02-01T02:04:45;15.93;;;9.77;;
63046;SDS011;62025;39.238;9.126;2023-02-01T02:07:16;16.85;;;10.90;;
63046;SDS011;62025;39.238;9.126;2023-02-01T02:09:47;20.17;;;10.77;;
63046;SDS011;62025;39.238;9.126;2023-02-01T02:12:13;23.13;;;11.80;;
63046;SDS011;62025;39.238;9.126;2023-02-01T02:14:40;16.27;;;11.50;;
63046;SDS011;62025;39.238;9.126;2023-02-01T02:32:06;19.88;;;10.45;;
63046;SDS011;62025;39.238;9.126;2023-02-01T02:35:06;22.17;;;9.88;;
63046;SDS011;62025;39.238;9.126;2023-02-01T02:37:50;14.13;;;9.10;;
63046;SDS011;62025;39.238;9.126;2023-02-01T02:40:32;15.95;;;9.77;;
63046;SDS011;62025;39.238;9.126;2023-02-01T02:43:21;14.82;;;9.27;;
63046;SDS011;62025;39.238;9.126;2023-02-01T02:46:16;17.23;;;9.23;;
63046;SDS011;62025;39.238;9.126;2023-02-01T02:49:13;15.32;;;8.65;;
63046;SDS011;62025;39.238;9.126;2023-02-01T02:51:55;15.57;;;8.43;;
63046;SDS011;62025;39.238;9.126;2023-02-01T02:54:47;15.20;;;8.65;;
63046;SDS011;62025;39.238;9.126;2023-02-01T02:57:31;12.57;;;8.10;;
63046;SDS011;62025;39.238;9.126;2023-02-01T03:00:27;16.98;;;8.20;;
63046;SDS011;62025;39.238;9.126;2023-02-01T03:03:16;17.65;;;8.32;;
63046;SDS011;62025;39.238;9.126;2023-02-01T03:06:01;15.68;;;8.38;;
63046;SDS011;62025;39.238;9.126;2023-02-01T03:08:29;15.90;;;8.88;;
63046;SDS011;62025;39.238;9.126;2023-02-01T03:11:09;12.70;;;8.15;;
63046;SDS011;62025;39.238;9.126;2023-02-01T03:16:23;13.98;;;8.43;;
63046;SDS011;62025;39.238;9.126;2023-02-01T03:24:06;13.10;;;7.82;;
63046;SDS011;62025;39.238;9.126;2023-02-01T03:26:40;14.82;;;7.75;;
63046;SDS011;62025;39.238;9.126;2023-02-01T03:29:14;12.70;;;7.68;;
63046;SDS011;62025;39.238;9.126;2023-02-01T03:31:50;12.55;;;7.38;;
63046;SDS011;62025;39.238;9.126;2023-02-01T03:34:17;15.82;;;6.65;;
63046;SDS011;62025;39.238;9.126;2023-02-01T03:36:48;11.35;;;6.68;;
63046;SDS011;62025;39.238;9.126;2023-02-01T03:39:27;13.27;;;6.78;;
63046;SDS011;62025;39.238;9.126;2023-02-01T03:42:08;14.93;;;6.05;;
63046;SDS011;62025;39.238;9.126;2023-02-01T03:44:51;9.25;;;5.68;;
63046;SDS011;62025;39.238;9.126;2023-02-01T03:47:27;9.65;;;5.32;;
63046;SDS011;62025;39.238;9.126;2023-02-01T03:50:07;10.38;;;5.10;;
63046;SDS011;62025;39.238;9.126;2023-02-01T03:52:40;10.63;;;5.03;;
63046;SDS011;62025;39.238;9.126;2023-02-01T03:55:42;11.75;;;4.88;;
63046;SDS011;62025;39.238;9.126;2023-02-01T03:58:18;10.20;;;5.47;;
63046;SDS011;62025;39.238;9.126;2023-02-01T04:00:53;11.43;;;6.13;;
63046;SDS011;62025;39.238;9.126;2023-02-01T04:03:23;10.20;;;5.55;;
63046;SDS011;62025;39.238;9.126;2023-02-01T04:05:51;10.38;;;5.30;;
63046;SDS011;62025;39.238;9.126;2023-02-01T04:08:21;9.18;;;5.05;;
63046;SDS011;62025;39.238;9.126;2023-02-01T04:10:47;15.48;;;5.90;;
63046;SDS011;62025;39.238;9.126;2023-02-01T04:13:14;10.63;;;5.15;;
63046;SDS011;62025;39.238;9.126;2023-02-01T04:15:40;11.23;;;5.60;;
63046;SDS011;62025;39.238;9.126;2023-02-01T04:18:06;10.10;;;5.20;;
63046;SDS011;62025;39.238;9.126;2023-02-01T04:20:32;12.10;;;5.90;;
63046;SDS011;62025;39.238;9.126;2023-02-01T04:22:58;12.60;;;5.05;;
63046;SDS011;62025;39.238;9.126;2023-02-01T04:25:24;8.32;;;4.32;;
63046;SDS011;62025;39.238;9.126;2023-02-01T04:27:50;10.45;;;4.35;;
63046;SDS011;62025;39.238;9.126;2023-02-01T04:30:17;10.55;;;4.30;;
63046;SDS011;62025;39.238;9.126;2023-02-01T04:32:43;10.63;;;4.15;;
63046;SDS011;62025;39.238;9.126;2023-02-01T04:35:09;9.63;;;3.78;;
63046;SDS011;62025;39.238;9.126;2023-02-01T04:37:36;13.07;;;3.55;;
63046;SDS011;62025;39.238;9.126;2023-02-01T04:40:02;7.13;;;3.55;;
63046;SDS011;62025;39.238;9.126;2023-02-01T04:42:29;10.63;;;3.58;;
63046;SDS011;62025;39.238;9.126;2023-02-01T04:44:55;9.93;;;3.85;;
63046;SDS011;62025;39.238;9.126;2023-02-01T04:47:21;8.85;;;3.42;;
63046;SDS011;62025;39.238;9.126;2023-02-01T04:49:47;8.73;;;4.07;;
63046;SDS011;62025;39.238;9.126;2023-02-01T04:52:13;9.95;;;3.85;;
63046;SDS011;62025;39.238;9.126;2023-02-01T04:54:39;7.50;;;3.58;;
63046;SDS011;62025;39.238;9.126;2023-02-01T04:57:05;7.40;;;3.67;;
63046;SDS011;62025;39.238;9.126;2023-02-01T04:59:31;10.68;;;4.15;;
63046;SDS011;62025;39.238;9.126;2023-02-01T05:01:57;9.35;;;3.65;;
63046;SDS011;62025;39.238;9.126;2023-02-01T05:04:23;7.90;;;3.58;;
63046;SDS011;62025;39.238;9.126;2023-02-01T05:06:49;8.27;;;3.38;;
63046;SDS011;62025;39.238;9.126;2023-02-01T05:09:15;8.23;;;3.45;;
63046;SDS011;62025;39.238;9.126;2023-02-01T05:11:41;8.98;;;3.70;;
63046;SDS011;62025;39.238;9.126;2023-02-01T05:14:25;7.47;;;3.25;;
63046;SDS011;62025;39.238;9.126;2023-02-01T05:16:51;7.10;;;3.75;;
63046;SDS011;62025;39.238;9.126;2023-02-01T05:19:17;8.63;;;4.00;;
63046;SDS011;62025;39.238;9.126;2023-02-01T05:21:44;7.55;;;3.33;;
63046;SDS011;62025;39.238;9.126;2023-02-01T05:24:09;12.70;;;4.05;;
63046;SDS011;62025;39.238;9.126;2023-02-01T05:26:42;8.43;;;2.90;;
63046;SDS011;62025;39.238;9.126;2023-02-01T05:29:08;8.38;;;3.50;;
63046;SDS011;62025;39.238;9.126;2023-02-01T05:31:35;9.80;;;3.10;;
63046;SDS011;62025;39.238;9.126;2023-02-01T05:34:02;10.65;;;3.33;;
63046;SDS011;62025;39.238;9.126;2023-02-01T05:36:28;6.68;;;3.00;;
63046;SDS011;62025;39.238;9.126;2023-02-01T05:38:55;8.50;;;3.28;;
63046;SDS011;62025;39.238;9.126;2023-02-01T05:41:21;11.48;;;3.65;;
63046;SDS011;62025;39.238;9.126;2023-02-01T05:43:47;8.40;;;3.65;;
63046;SDS011;62025;39.238;9.126;2023-02-01T05:46:13;8.90;;;3.67;;
63046;SDS011;62025;39.238;9.126;2023-02-01T05:48:39;6.63;;;3.53;;
63046;SDS011;62025;39.238;9.126;2023-02-01T05:51:06;8.40;;;3.83;;
63046;SDS011;62025;39.238;9.126;2023-02-01T05:53:32;10.57;;;4.20;;
63046;SDS011;62025;39.238;9.126;2023-02-01T05:55:58;10.90;;;4.07;;
63046;SDS011;62025;39.238;9.126;2023-02-01T05:58:24;9.50;;;4.45;;
63046;SDS011;62025;39.238;9.126;2023-02-01T06:00:50;11.63;;;4.30;;
63046;SDS011;62025;39.238;9.126;2023-02-01T06:03:16;9.45;;;4.55;;
63046;SDS011;62025;39.238;9.126;2023-02-01T06:05:44;12.07;;;5.25;;
63046;SDS011;62025;39.238;9.126;2023-02-01T06:08:11;11.35;;;4.90;;
63046;SDS011;62025;39.238;9.126;2023-02-01T06:10:37;13.63;;;5.25;;
63046;SDS011;62025;39.238;9.126;2023-02-01T06:13:04;13.95;;;5.63;;
63046;SDS011;62025;39.238;9.126;2023-02-01T06:15:30;14.63;;;5.88;;
63046;SDS011;62025;39.238;9.126;2023-02-01T06:17:57;12.02;;;6.45;;
63046;SDS011;62025;39.238;9.126;2023-02-01T06:20:23;13.75;;;6.47;;
63046;SDS011;62025;39.238;9.126;2023-02-01T06:22:49;13.57;;;5.90;;
63046;SDS011;62025;39.238;9.126;2023-02-01T06:25:15;14.40;;;5.80;;
63046;SDS011;62025;39.238;9.126;2023-02-01T06:27:42;12.63;;;5.93;;
63046;SDS011;62025;39.238;9.126;2023-02-01T06:30:10;11.48;;;5.35;;
63046;SDS011;62025;39.238;9.126;2023-02-01T06:32:40;13.90;;;6.93;;
63046;SDS011;62025;39.238;9.126;2023-02-01T06:35:07;16.20;;;6.30;;
63046;SDS011;62025;39.238;9.126;2023-02-01T06:37:36;13.25;;;6.65;;
63046;SDS011;62025;39.238;9.126;2023-02-01T06:40:03;19.33;;;6.18;;
63046;SDS011;62025;39.238;9.126;2023-02-01T06:42:30;12.48;;;5.97;;
63046;SDS011;62025;39.238;9.126;2023-02-01T06:44:56;17.00;;;6.40;;
63046;SDS011;62025;39.238;9.126;2023-02-01T06:47:22;16.48;;;6.18;;
63046;SDS011;62025;39.238;9.126;2023-02-01T06:49:48;15.43;;;6.82;;
63046;SDS011;62025;39.238;9.126;2023-02-01T06:52:14;15.55;;;5.75;;
63046;SDS011;62025;39.238;9.126;2023-02-01T06:54:41;15.70;;;5.63;;
63046;SDS011;62025;39.238;9.126;2023-02-01T06:57:07;13.88;;;5.65;;
63046;SDS011;62025;39.238;9.126;2023-02-01T06:59:33;14.85;;;5.30;;
63046;SDS011;62025;39.238;9.126;2023-02-01T07:01:59;14.32;;;5.50;;
63046;SDS011;62025;39.238;9.126;2023-02-01T07:04:24;15.85;;;5.55;;
63046;SDS011;62025;39.238;9.126;2023-02-01T07:06:51;14.55;;;5.82;;
63046;SDS011;62025;39.238;9.126;2023-02-01T07:09:17;12.75;;;5.90;;
63046;SDS011;62025;39.238;9.126;2023-02-01T07:11:42;9.18;;;5.07;;
63046;SDS011;62025;39.238;9.126;2023-02-01T07:14:11;12.20;;;5.43;;
63046;SDS011;62025;39.238;9.126;2023-02-01T07:16:37;14.30;;;6.25;;
63046;SDS011;62025;39.238;9.126;2023-02-01T07:19:04;14.25;;;6.32;;
63046;SDS011;62025;39.238;9.126;2023-02-01T07:21:30;17.85;;;6.30;;
63046;SDS011;62025;39.238;9.126;2023-02-01T07:23:57;13.15;;;5.82;;
63046;SDS011;62025;39.238;9.126;2023-02-01T07:26:23;12.70;;;6.20;;
63046;SDS011;62025;39.238;9.126;2023-02-01T07:28:49;21.58;;;6.45;;
63046;SDS011;62025;39.238;9.126;2023-02-01T07:31:17;12.93;;;5.65;;
63046;SDS011;62025;39.238;9.126;2023-02-01T07:33:46;10.50;;;4.78;;
63046;SDS011;62025;39.238;9.126;2023-02-01T07:36:16;7.40;;;3.95;;
63046;SDS011;62025;39.238;9.126;2023-02-01T07:38:43;13.98;;;5.00;;
63046;SDS011;62025;39.238;9.126;2023-02-01T07:41:12;15.25;;;4.00;;
63046;SDS011;62025;39.238;9.126;2023-02-01T07:43:38;9.27;;;4.53;;
63046;SDS011;62025;39.238;9.126;2023-02-01T07:46:04;12.70;;;4.70;;
63046;SDS011;62025;39.238;9.126;2023-02-01T07:48:31;10.23;;;5.15;;
63046;SDS011;62025;39.238;9.126;2023-02-01T07:51:02;9.45;;;5.10;;
63046;SDS011;62025;39.238;9.126;2023-02-01T07:53:33;12.80;;;4.68;;
63046;SDS011;62025;39.238;9.126;2023-02-01T07:56:00;16.55;;;5.03;;
63046;SDS011;62025;39.238;9.126;2023-02-01T07:58:27;16.05;;;5.72;;
63046;SDS011;62025;39.238;9.126;2023-02-01T08:00:54;13.85;;;5.47;;
63046;SDS011;62025;39.238;9.126;2023-02-01T08:03:39;14.63;;;5.78;;
63046;SDS011;62025;39.238;9.126;2023-02-01T08:06:05;14.07;;;6.22;;
63046;SDS011;62025;39.238;9.126;2023-02-01T08:08:32;12.10;;;5.65;;
63046;SDS011;62025;39.238;9.126;2023-02-01T08:10:58;15.35;;;6.25;;
63046;SDS011;62025;39.238;9.126;2023-02-01T08:13:26;15.45;;;9.13;;
63046;SDS011;62025;39.238;9.126;2023-02-01T08:15:52;13.15;;;7.03;;
63046;SDS011;62025;39.238;9.126;2023-02-01T08:18:27;15.77;;;6.15;;
63046;SDS011;62025;39.238;9.126;2023-02-01T08:20:54;16.80;;;5.57;;
63046;SDS011;62025;39.238;9.126;2023-02-01T08:23:20;12.93;;;4.88;;
63046;SDS011;62025;39.238;9.126;2023-02-01T08:25:47;13.63;;;4.97;;
63046;SDS011;62025;39.238;9.126;2023-02-01T08:28:13;11.35;;;4.50;;
63046;SDS011;62025;39.238;9.126;2023-02-01T08:30:40;12.52;;;4.78;;
63046;SDS011;62025;39.238;9.126;2023-02-01T08:33:09;13.70;;;4.88;;
63046;SDS011;62025;39.238;9.126;2023-02-01T08:35:36;11.80;;;4.10;;
63046;SDS011;62025;39.238;9.126;2023-02-01T08:38:04;7.25;;;4.70;;
63046;SDS011;62025;39.238;9.126;2023-02-01T08:40:30;10.05;;;4.30;;
63046;SDS011;62025;39.238;9.126;2023-02-01T08:42:58;9.40;;;3.90;;
63046;SDS011;62025;39.238;9.126;2023-02-01T08:45:26;13.98;;;4.40;;
63046;SDS011;62025;39.238;9.126;2023-02-01T08:47:55;9.80;;;4.82;;
63046;SDS011;62025;39.238;9.126;2023-02-01T08:50:22;12.20;;;5.20;;
63046;SDS011;62025;39.238;9.126;2023-02-01T08:52:49;14.57;;;6.53;;
63046;SDS011;62025;39.238;9.126;2023-02-01T08:55:16;14.73;;;7.00;;
63046;SDS011;62025;39.238;9.126;2023-02-01T08:57:42;15.43;;;8.18;;
63046;SDS011;62025;39.238;9.126;2023-02-01T09:00:10;17.90;;;9.88;;
63046;SDS011;62025;39.238;9.126;2023-02-01T09:02:40;19.40;;;9.98;;
63046;SDS011;62025;39.238;9.126;2023-02-01T09:05:07;20.70;;;11.50;;
63046;SDS011;62025;39.238;9.126;2023-02-01T09:07:33;21.30;;;11.90;;
63046;SDS011;62025;39.238;9.126;2023-02-01T09:10:00;22.98;;;12.38;;
63046;SDS011;62025;39.238;9.126;2023-02-01T09:12:27;22.00;;;12.13;;
63046;SDS011;62025;39.238;9.126;2023-02-01T09:14:56;23.90;;;14.50;;
63046;SDS011;62025;39.238;9.126;2023-02-01T09:17:24;22.98;;;13.35;;
63046;SDS011;62025;39.238;9.126;2023-02-01T09:19:52;24.30;;;11.82;;
63046;SDS011;62025;39.238;9.126;2023-02-01T09:22:18;20.00;;;10.43;;
63046;SDS011;62025;39.238;9.126;2023-02-01T09:24:44;19.30;;;10.32;;
63046;SDS011;62025;39.238;9.126;2023-02-01T09:27:10;17.00;;;9.45;;
63046;SDS011;62025;39.238;9.126;2023-02-01T09:29:36;16.13;;;8.10;;
63046;SDS011;62025;39.238;9.126;2023-02-01T09:32:02;17.58;;;8.13;;
63046;SDS011;62025;39.238;9.126;2023-02-01T09:34:28;14.70;;;7.18;;
63046;SDS011;62025;39.238;9.126;2023-02-01T09:36:55;18.60;;;8.45;;
63046;SDS011;62025;39.238;9.126;2023-02-01T09:39:21;14.30;;;7.47;;
63046;SDS011;62025;39.238;9.126;2023-02-01T09:47:39;14.73;;;7.13;;
63046;SDS011;62025;39.238;9.126;2023-02-01T09:50:17;12.93;;;5.70;;
63046;SDS011;62025;39.238;9.126;2023-02-01T09:55:47;15.25;;;6.18;;
63046;SDS011;62025;39.238;9.126;2023-02-01T09:58:17;13.45;;;6.63;;
63046;SDS011;62025;39.238;9.126;2023-02-01T10:00:53;15.30;;;6.85;;
63046;SDS011;62025;39.238;9.126;2023-02-01T10:03:23;9.80;;;5.30;;
63046;SDS011;62025;39.238;9.126;2023-02-01T10:11:06;8.57;;;4.63;;
63046;SDS011;62025;39.238;9.126;2023-02-01T10:20:00;8.85;;;3.35;;
63046;SDS011;62025;39.238;9.126;2023-02-01T10:22:46;6.82;;;3.30;;
63046;SDS011;62025;39.238;9.126;2023-02-01T10:28:18;9.85;;;3.75;;
63046;SDS011;62025;39.238;9.126;2023-02-01T10:30:47;14.07;;;5.60;;
63046;SDS011;62025;39.238;9.126;2023-02-01T10:38:52;10.98;;;5.88;;
63046;SDS011;62025;39.238;9.126;2023-02-01T10:41:21;12.45;;;4.90;;
63046;SDS011;62025;39.238;9.126;2023-02-01T10:43:53;16.25;;;4.15;;
63046;SDS011;62025;39.238;9.126;2023-02-01T10:46:24;7.75;;;3.92;;
63046;SDS011;62025;39.238;9.126;2023-02-01T10:48:52;7.55;;;3.60;;
63046;SDS011;62025;39.238;9.126;2023-02-01T10:51:22;10.27;;;4.05;;
63046;SDS011;62025;39.238;9.126;2023-02-01T10:54:38;8.05;;;3.30;;
63046;SDS011;62025;39.238;9.126;2023-02-01T10:56:45;5.30;;;2.63;;
63046;SDS011;62025;39.238;9.126;2023-02-01T10:59:17;8.43;;;2.80;;
63046;SDS011;62025;39.238;9.126;2023-02-01T11:01:50;9.32;;;3.60;;
63046;SDS011;62025;39.238;9.126;2023-02-01T11:04:38;10.63;;;3.40;;
63046;SDS011;62025;39.238;9.126;2023-02-01T11:09:51;10.27;;;4.82;;
63046;SDS011;62025;39.238;9.126;2023-02-01T11:12:36;11.45;;;5.13;;
63046;SDS011;62025;39.238;9.126;2023-02-01T11:17:45;10.02;;;4.07;;
63046;SDS011;62025;39.238;9.126;2023-02-01T11:20:15;9.80;;;3.30;;
63046;SDS011;62025;39.238;9.126;2023-02-01T11:22:56;9.55;;;2.72;;
63046;SDS011;62025;39.238;9.126;2023-02-01T11:25:23;5.47;;;2.30;;
63046;SDS011;62025;39.238;9.126;2023-02-01T11:27:51;7.72;;;3.00;;
63046;SDS011;62025;39.238;9.126;2023-02-01T11:33:03;11.15;;;3.70;;
63046;SDS011;62025;39.238;9.126;2023-02-01T11:35:30;7.88;;;3.22;;
63046;SDS011;62025;39.238;9.126;2023-02-01T11:37:57;10.77;;;4.32;;
63046;SDS011;62025;39.238;9.126;2023-02-01T11:40:27;13.57;;;3.90;;
63046;SDS011;62025;39.238;9.126;2023-02-01T11:43:14;5.72;;;3.10;;
63046;SDS011;62025;39.238;9.126;2023-02-01T11:45:53;8.18;;;3.80;;
63046;SDS011;62025;39.238;9.126;2023-02-01T11:48:27;8.60;;;3.83;;
63046;SDS011;62025;39.238;9.126;2023-02-01T11:51:40;6.95;;;3.20;;
63046;SDS011;62025;39.238;9.126;2023-02-01T11:54:02;7.35;;;3.25;;
63046;SDS011;62025;39.238;9.126;2023-02-01T11:57:03;8.35;;;3.35;;
63046;SDS011;62025;39.238;9.126;2023-02-01T12:12:24;8.25;;;3.45;;
63046;SDS011;62025;39.238;9.126;2023-02-01T12:26:50;5.45;;;3.00;;
63046;SDS011;62025;39.238;9.126;2023-02-01T12:44:26;6.60;;;3.35;;
63046;SDS011;62025;39.238;9.126;2023-02-01T12:52:53;9.63;;;3.55;;
63046;SDS011;62025;39.238;9.126;2023-02-01T12:55:24;9.00;;;3.63;;
63046;SDS011;62025;39.238;9.126;2023-02-01T12:58:13;8.82;;;3.45;;
63046;SDS011;62025;39.238;9.126;2023-02-01T13:01:11;10.60;;;4.25;;
63046;SDS011;62025;39.238;9.126;2023-02-01T13:06:41;14.27;;;4.60;;
63046;SDS011;62025;39.238;9.126;2023-02-01T13:12:00;11.80;;;5.10;;
63046;SDS011;62025;39.238;9.126;2023-02-01T13:14:44;7.82;;;4.70;;
63046;SDS011;62025;39.238;9.126;2023-02-01T13:17:25;11.40;;;5.20;;
63046;SDS011;62025;39.238;9.126;2023-02-01T13:20:19;13.23;;;4.57;;
63046;SDS011;62025;39.238;9.126;2023-02-01T13:22:51;13.23;;;4.30;;
63046;SDS011;62025;39.238;9.126;2023-02-01T13:25:27;10.52;;;3.58;;
63046;SDS011;62025;39.238;9.126;2023-02-01T13:28:04;8.70;;;4.28;;
63046;SDS011;62025;39.238;9.126;2023-02-01T13:30:50;7.53;;;4.28;;
63046;SDS011;62025;39.238;9.126;2023-02-01T13:33:59;8.00;;;4.00;;
63046;SDS011;62025;39.238;9.126;2023-02-01T13:45:47;7.68;;;4.22;;
63046;SDS011;62025;39.238;9.126;2023-02-01T13:48:31;14.43;;;4.70;;
63046;SDS011;62025;39.238;9.126;2023-02-01T13:51:05;6.63;;;3.75;;
63046;SDS011;62025;39.238;9.126;2023-02-01T13:53:33;8.27;;;4.00;;
63046;SDS011;62025;39.238;9.126;2023-02-01T13:56:12;6.28;;;3.42;;
63046;SDS011;62025;39.238;9.126;2023-02-01T13:58:42;7.45;;;4.20;;
63046;SDS011;62025;39.238;9.126;2023-02-01T14:01:33;10.70;;;4.53;;
63046;SDS011;62025;39.238;9.126;2023-02-01T14:03:59;10.80;;;4.50;;
63046;SDS011;62025;39.238;9.126;2023-02-01T14:09:11;6.55;;;4.03;;
63046;SDS011;62025;39.238;9.126;2023-02-01T14:15:25;12.07;;;4.50;;
63046;SDS011;62025;39.238;9.126;2023-02-01T14:17:53;9.05;;;4.28;;
63046;SDS011;62025;39.238;9.126;2023-02-01T14:23:11;7.68;;;4.03;;
63046;SDS011;62025;39.238;9.126;2023-02-01T14:25:44;7.57;;;3.85;;
63046;SDS011;62025;39.238;9.126;2023-02-01T14:28:24;8.65;;;3.75;;
63046;SDS011;62025;39.238;9.126;2023-02-01T14:30:54;9.23;;;3.80;;
63046;SDS011;62025;39.238;9.126;2023-02-01T14:33:23;9.48;;;4.10;;
63046;SDS011;62025;39.238;9.126;2023-02-01T14:36:03;7.72;;;3.95;;
63046;SDS011;62025;39.238;9.126;2023-02-01T14:38:33;7.32;;;4.03;;
63046;SDS011;62025;39.238;9.126;2023-02-01T14:41:13;8.68;;;4.10;;
63046;SDS011;62025;39.238;9.126;2023-02-01T14:49:29;8.07;;;3.60;;
63046;SDS011;62025;39.238;9.126;2023-02-01T14:51:58;8.85;;;3.75;;
63046;SDS011;62025;39.238;9.126;2023-02-01T14:54:27;8.38;;;3.90;;
63046;SDS011;62025;39.238;9.126;2023-02-01T14:56:54;10.75;;;3.95;;
63046;SDS011;62025;39.238;9.126;2023-02-01T14:59:21;8.75;;;4.93;;
63046;SDS011;62025;39.238;9.126;2023-02-01T15:01:52;10.05;;;4.10;;
63046;SDS011;62025;39.238;9.126;2023-02-01T15:04:24;7.63;;;3.47;;
63046;SDS011;62025;39.238;9.126;2023-02-01T15:07:13;6.05;;;3.17;;
63046;SDS011;62025;39.238;9.126;2023-02-01T15:09:42;9.93;;;3.53;;
63046;SDS011;62025;39.238;9.126;2023-02-01T15:14:38;9.52;;;5.10;;
63046;SDS011;62025;39.238;9.126;2023-02-01T15:17:27;10.65;;;3.85;;
63046;SDS011;62025;39.238;9.126;2023-02-01T15:22:40;11.93;;;3.72;;
63046;SDS011;62025;39.238;9.126;2023-02-01T15:25:26;13.95;;;3.50;;
63046;SDS011;62025;39.238;9.126;2023-02-01T15:27:55;10.70;;;3.70;;
63046;SDS011;62025;39.238;9.126;2023-02-01T15:30:26;7.10;;;3.97;;
63046;SDS011;62025;39.238;9.126;2023-02-01T15:40:58;6.47;;;3.00;;
63046;SDS011;62025;39.238;9.126;2023-02-01T15:43:30;7.68;;;3.67;;
63046;SDS011;62025;39.238;9.126;2023-02-01T15:46:21;7.40;;;3.20;;
63046;SDS011;62025;39.238;9.126;2023-02-01T15:51:23;7.60;;;3.72;;
63046;SDS011;62025;39.238;9.126;2023-02-01T15:53:58;8.93;;;4.05;;
63046;SDS011;62025;39.238;9.126;2023-02-01T15:56:36;6.93;;;3.70;;
63046;SDS011;62025;39.238;9.126;2023-02-01T15:59:12;14.13;;;4.10;;
63046;SDS011;62025;39.238;9.126;2023-02-01T16:01:44;9.13;;;3.17;;
63046;SDS011;62025;39.238;9.126;2023-02-01T16:06:54;8.98;;;3.85;;
63046;SDS011;62025;39.238;9.126;2023-02-01T16:09:35;5.38;;;3.08;;
63046;SDS011;62025;39.238;9.126;2023-02-01T16:15:03;6.80;;;3.30;;
63046;SDS011;62025;39.238;9.126;2023-02-01T16:17:30;8.43;;;3.47;;
63046;SDS011;62025;39.238;9.126;2023-02-01T16:19:57;6.80;;;3.58;;
63046;SDS011;62025;39.238;9.126;2023-02-01T16:22:23;7.43;;;4.15;;
63046;SDS011;62025;39.238;9.126;2023-02-01T16:24:51;8.75;;;4.22;;
63046;SDS011;62025;39.238;9.126;2023-02-01T16:27:17;12.90;;;5.40;;
63046;SDS011;62025;39.238;9.126;2023-02-01T16:29:43;13.70;;;5.32;;
63046;SDS011;62025;39.238;9.126;2023-02-01T16:32:16;11.77;;;5.53;;
63046;SDS011;62025;39.238;9.126;2023-02-01T16:34:45;8.27;;;4.32;;
63046;SDS011;62025;39.238;9.126;2023-02-01T16:37:13;9.50;;;4.65;;
63046;SDS011;62025;39.238;9.126;2023-02-01T16:39:45;9.23;;;4.35;;
63046;SDS011;62025;39.238;9.126;2023-02-01T16:42:11;9.48;;;4.70;;
63046;SDS011;62025;39.238;9.126;2023-02-01T16:44:39;7.57;;;3.53;;
63046;SDS011;62025;39.238;9.126;2023-02-01T16:47:11;11.88;;;4.72;;
63046;SDS011;62025;39.238;9.126;2023-02-01T16:49:42;7.55;;;3.70;;
63046;SDS011;62025;39.238;9.126;2023-02-01T16:52:13;8.57;;;3.88;;
63046;SDS011;62025;39.238;9.126;2023-02-01T16:54:43;12.45;;;4.68;;
63046;SDS011;62025;39.238;9.126;2023-02-01T16:57:13;8.35;;;4.55;;
63046;SDS011;62025;39.238;9.126;2023-02-01T16:59:42;11.48;;;5.28;;
63046;SDS011;62025;39.238;9.126;2023-02-01T17:02:15;10.82;;;5.65;;
63046;SDS011;62025;39.238;9.126;2023-02-01T17:04:47;10.70;;;5.32;;
63046;SDS011;62025;39.238;9.126;2023-02-01T17:07:14;9.38;;;4.70;;
63046;SDS011;62025;39.238;9.126;2023-02-01T17:09:43;10.68;;;4.53;;
63046;SDS011;62025;39.238;9.126;2023-02-01T17:12:32;9.68;;;5.10;;
63046;SDS011;62025;39.238;9.126;2023-02-01T17:14:58;14.68;;;6.75;;
63046;SDS011;62025;39.238;9.126;2023-02-01T17:17:27;13.35;;;5.93;;
63046;SDS011;62025;39.238;9.126;2023-02-01T17:20:00;13.68;;;6.22;;
63046;SDS011;62025;39.238;9.126;2023-02-01T17:22:26;9.60;;;5.72;;
63046;SDS011;62025;39.238;9.126;2023-02-01T17:24:52;9.00;;;4.40;;
63046;SDS011;62025;39.238;9.126;2023-02-01T17:27:18;9.80;;;4.10;;
63046;SDS011;62025;39.238;9.126;2023-02-01T17:29:44;10.55;;;4.90;;
63046;SDS011;62025;39.238;9.126;2023-02-01T17:32:15;7.78;;;4.43;;
63046;SDS011;62025;39.238;9.126;2023-02-01T17:34:45;9.68;;;4.15;;
63046;SDS011;62025;39.238;9.126;2023-02-01T17:37:18;14.18;;;4.95;;
63046;SDS011;62025;39.238;9.126;2023-02-01T17:39:55;9.50;;;3.95;;